Time;durP1;ratioP1;P1;durP2;ratioP2;P2;SDS_P1;SDS_P2;PMS_P1;PMS_P2;Temp;Humidity;BMP_temperature;BMP_pressure;BME280_temperature;BME280_humidity;BME280_pressure;Samples;Min_cycle;Max_cycle;Signal;HPM_P1;HPM_P2
2023/11/21 00:00:36;;;;;;;12.30;8.70;;;;;;;8.13;100.00;98104.27;109617;1251;60615;-72
2023/11/21 00:03:23;;;;;;;10.80;8.80;;;;;;;8.13;100.00;98100.39;109614;1251;66387;-72
2023/11/21 00:05:50;;;;;;;14.70;8.70;;;;;;;8.12;100.00;98100.10;109458;1251;59075;-73
2023/11/21 00:08:17;;;;;;;11.20;8.30;;;;;;;8.12;100.00;98104.35;109611;1251;59618;-72
2023/11/21 00:10:44;;;;;;;10.90;7.70;;;;;;;8.12;100.00;98099.43;109288;1251;66627;-72
2023/11/21 00:13:12;;;;;;;11.30;8.10;;;;;;;8.11;100.00;98100.91;109345;1251;60083;-72
2023/11/21 00:15:40;;;;;;;11.70;8.40;;;;;;;8.10;100.00;98106.09;109600;1251;64020;-72
2023/11/21 00:18:07;;;;;;;9.50;8.20;;;;;;;8.09;100.00;98105.83;109606;1251;59035;-72
2023/11/21 00:20:33;;;;;;;10.90;8.40;;;;;;;8.08;100.00;98103.77;109631;1251;59081;-72
2023/11/21 00:23:02;;;;;;;9.70;8.10;;;;;;;8.07;100.00;98107.70;109640;1251;67052;-71
2023/11/21 00:25:28;;;;;;;9.80;8.10;;;;;;;8.07;100.00;98107.02;109653;1251;60903;-72
2023/11/21 00:27:55;;;;;;;9.50;7.50;;;;;;;8.08;100.00;98106.44;109612;1251;65164;-71
2023/11/21 00:30:22;;;;;;;8.10;6.80;;;;;;;8.08;100.00;98110.34;109646;1251;59429;-72
2023/11/21 00:32:49;;;;;;;11.60;8.20;;;;;;;8.07;100.00;98112.88;109644;1251;58881;-71
2023/11/21 00:35:15;;;;;;;9.20;8.30;;;;;;;8.06;100.00;98112.20;109581;1251;65993;-71
2023/11/21 00:37:42;;;;;;;10.20;8.00;;;;;;;8.06;100.00;98109.91;109617;1251;61115;-72
2023/11/21 00:40:09;;;;;;;11.10;8.20;;;;;;;8.06;100.00;98111.19;109622;1251;64213;-73
2023/11/21 00:42:36;;;;;;;9.70;7.60;;;;;;;8.04;100.00;98114.11;109622;1251;59424;-72
2023/11/21 00:45:03;;;;;;;10.70;8.00;;;;;;;8.04;100.00;98115.03;109606;1251;59019;-72
2023/11/21 00:47:30;;;;;;;9.10;8.00;;;;;;;8.03;100.00;98111.38;109316;1254;65945;-72
2023/11/21 00:49:56;;;;;;;10.20;8.30;;;;;;;8.03;100.00;98118.10;109022;1257;58969;-72
2023/11/21 00:52:23;;;;;;;8.30;7.30;;;;;;;8.03;100.00;98118.13;109309;1255;65249;-72
2023/11/21 00:54:50;;;;;;;9.50;8.50;;;;;;;8.01;100.00;98120.34;109320;1256;58947;-72
2023/11/21 00:57:17;;;;;;;8.50;7.60;;;;;;;8.00;100.00;98118.84;109311;1255;58978;-72
2023/11/21 00:59:43;;;;;;;10.40;8.10;;;;;;;7.98;100.00;98123.37;109282;1256;74818;-72
2023/11/21 01:02:10;;;;;;;9.50;8.10;;;;;;;7.98;100.00;98124.79;109287;1255;60156;-72
2023/11/21 01:04:37;;;;;;;9.80;8.00;;;;;;;7.98;100.00;98117.58;109285;1256;65051;-72
2023/11/21 01:07:05;;;;;;;8.80;8.00;;;;;;;7.97;100.00;98116.37;109294;1255;59078;-72
2023/11/21 01:09:32;;;;;;;13.70;9.40;;;;;;;7.96;100.00;98118.43;109306;1256;59126;-72
2023/11/21 01:11:59;;;;;;;10.00;9.00;;;;;;;7.93;100.00;98116.65;109315;1255;65750;-72
2023/11/21 01:14:26;;;;;;;10.40;8.80;;;;;;;7.89;100.00;98119.23;109334;1256;61084;-71
2023/11/21 01:16:53;;;;;;;11.70;8.40;;;;;;;7.84;100.00;98117.64;109313;1256;65053;-72
2023/11/21 01:19:20;;;;;;;12.30;9.20;;;;;;;7.79;100.00;98120.84;109521;1251;58944;-72
2023/11/21 01:21:47;;;;;;;11.80;9.90;;;;;;;7.74;100.00;98124.40;109620;1251;59790;-72
2023/11/21 01:24:13;;;;;;;10.30;9.10;;;;;;;7.70;100.00;98125.73;109623;1251;66762;-71
2023/11/21 01:26:40;;;;;;;11.30;9.00;;;;;;;7.67;100.00;98122.54;109601;1251;60784;-71
2023/11/21 01:29:07;;;;;;;12.20;9.40;;;;;;;7.66;100.00;98126.34;109618;1251;64863;-71
2023/11/21 01:31:33;;;;;;;12.30;9.90;;;;;;;7.65;100.00;98131.33;109654;1251;58982;-72
2023/11/21 01:34:00;;;;;;;11.50;10.20;;;;;;;7.64;100.00;98127.16;109603;1251;58962;-71
2023/11/21 01:36:34;;;;;;;11.10;10.00;;;;;;;7.63;100.00;98132.21;109587;1251;65696;-71
2023/11/21 01:39:00;;;;;;;11.40;10.10;;;;;;;7.62;100.00;98138.64;109610;1251;61075;-71
2023/11/21 01:41:28;;;;;;;10.80;8.40;;;;;;;7.62;100.00;98139.30;109607;1251;64817;-71
2023/11/21 01:43:55;;;;;;;12.70;9.20;;;;;;;7.64;100.00;98136.39;109593;1251;59424;-71
2023/11/21 01:46:23;;;;;;;12.20;9.10;;;;;;;7.64;100.00;98138.81;109612;1250;58904;-71
2023/11/21 01:48:50;;;;;;;9.30;8.30;;;;;;;7.65;100.00;98140.52;109600;1251;66962;-72
2023/11/21 01:51:18;;;;;;;13.10;9.10;;;;;;;7.65;100.00;98140.16;109622;1250;60077;-71
2023/11/21 01:53:46;;;;;;;9.70;7.90;;;;;;;7.66;100.00;98138.70;109635;1251;64038;-71
2023/11/21 01:56:13;;;;;;;11.50;7.70;;;;;;;7.67;100.00;98139.88;109556;1251;60797;-72
2023/11/21 01:58:40;;;;;;;9.50;7.70;;;;;;;7.67;100.00;98136.88;109631;1251;58984;-71
2023/11/21 02:01:07;;;;;;;9.50;7.30;;;;;;;7.65;100.00;98139.66;109574;1251;67068;-72
2023/11/21 02:03:34;;;;;;;10.80;8.00;;;;;;;7.65;100.00;98142.34;109613;1250;61117;-71
2023/11/21 02:06:01;;;;;;;10.90;7.00;;;;;;;7.64;100.00;98139.56;109585;1251;64018;-71
2023/11/21 02:08:28;;;;;;;11.30;7.20;;;;;;;7.64;100.00;98137.08;109590;1251;58958;-71
2023/11/21 02:10:54;;;;;;;7.00;6.10;;;;;;;7.64;100.00;98140.95;109638;1251;59005;-71
2023/11/21 02:13:21;;;;;;;6.80;5.80;;;;;;;7.63;100.00;98142.95;109652;1250;67048;-71
2023/11/21 02:15:49;;;;;;;10.50;6.40;;;;;;;7.64;100.00;98142.56;109638;1250;61158;-71
2023/11/21 02:18:17;;;;;;;10.50;6.50;;;;;;;7.64;100.00;98139.03;109639;1250;64015;-72
2023/11/21 02:20:44;;;;;;;10.00;6.60;;;;;;;7.64;100.00;98140.59;109611;1250;59003;-71
2023/11/21 02:23:12;;;;;;;9.00;6.70;;;;;;;7.64;100.00;98141.14;109660;1250;59223;-71
2023/11/21 02:25:39;;;;;;;11.50;6.70;;;;;;;7.64;100.00;98140.44;109662;1251;66952;-72
2023/11/21 02:28:06;;;;;;;11.30;6.90;;;;;;;7.64;100.00;98145.38;109663;1251;60125;-72
2023/11/21 02:30:33;;;;;;;10.10;6.30;;;;;;;7.64;100.00;98148.39;109620;1251;65078;-72
2023/11/21 02:33:01;;;;;;;9.90;5.90;;;;;;;7.63;100.00;98141.36;109641;1251;58957;-71
2023/11/21 02:35:27;;;;;;;8.70;6.30;;;;;;;7.63;100.00;98143.14;109607;1251;59048;-72
2023/11/21 02:37:54;;;;;;;9.50;6.00;;;;;;;7.63;100.00;98144.02;109597;1251;67108;-72
2023/11/21 02:40:21;;;;;;;7.80;6.10;;;;;;;7.64;100.00;98148.42;109628;1250;61062;-72
2023/11/21 02:42:48;;;;;;;7.00;6.30;;;;;;;7.64;100.00;98151.61;109653;1251;65177;-72
2023/11/21 02:45:16;;;;;;;8.40;7.30;;;;;;;7.63;100.00;98153.58;109559;1251;58957;-71
2023/11/21 02:47:44;;;;;;;10.00;6.50;;;;;;;7.63;100.00;98151.44;109613;1251;58913;-71
2023/11/21 02:50:11;;;;;;;11.90;6.50;;;;;;;7.64;100.00;98154.60;109688;1250;67202;-71
2023/11/21 02:52:38;;;;;;;7.60;6.20;;;;;;;7.64;100.00;98157.02;109552;1251;60049;-71
2023/11/21 02:55:07;;;;;;;7.10;5.80;;;;;;;7.65;100.00;98154.52;109653;1251;64240;-72
2023/11/21 02:57:33;;;;;;;6.80;5.40;;;;;;;7.65;100.00;98156.83;109607;1251;59047;-72
2023/11/21 03:00:00;;;;;;;9.60;5.90;;;;;;;7.65;100.00;98159.11;109579;1250;59103;-72
2023/11/21 03:02:42;;;;;;;9.60;5.90;;;;;;;7.65;100.00;98162.09;109115;1256;65733;-72
2023/11/21 03:05:09;;;;;;;8.10;5.80;;;;;;;7.65;100.00;98168.09;109160;1256;60191;-72
2023/11/21 03:07:39;;;;;;;5.90;5.30;;;;;;;7.65;100.00;98168.30;109118;1256;63955;-71
2023/11/21 03:10:08;;;;;;;8.80;5.30;;;;;;;7.65;100.00;98170.08;109105;1256;59732;-72
2023/11/21 03:12:35;;;;;;;8.30;5.10;;;;;;;7.65;100.00;98169.86;109171;1256;58956;-72
2023/11/21 03:15:02;;;;;;;8.00;5.70;;;;;;;7.65;100.00;98171.45;109111;1256;75628;-71
2023/11/21 03:17:29;;;;;;;6.20;5.00;;;;;;;7.65;100.00;98168.09;108944;1260;59530;-72
2023/11/21 03:19:57;;;;;;;10.60;6.50;;;;;;;7.66;100.00;98170.55;109108;1256;64009;-72
2023/11/21 03:22:23;;;;;;;10.00;5.50;;;;;;;7.66;100.00;98169.98;109098;1256;59045;-72
2023/11/21 03:24:50;;;;;;;8.10;5.90;;;;;;;7.66;100.00;98166.79;108990;1256;59053;-72
2023/11/21 03:27:16;;;;;;;8.70;6.10;;;;;;;7.65;100.00;98167.20;109104;1256;67038;-72
2023/11/21 03:29:44;;;;;;;9.00;8.00;;;;;;;7.66;100.00;98163.11;109081;1256;60100;-71
2023/11/21 03:32:11;;;;;;;14.40;9.50;;;;;;;7.66;100.00;98161.31;109133;1256;64750;-73
2023/11/21 03:34:57;;;;;;;9.50;8.30;;;;;;;7.67;100.00;98157.74;109596;1251;58991;-72
2023/11/21 03:37:27;;;;;;;7.30;6.00;;;;;;;7.68;100.00;98160.85;109598;1251;59056;-71
2023/11/21 03:39:56;;;;;;;7.90;6.90;;;;;;;7.67;100.00;98164.06;109627;1251;66044;-72
2023/11/21 03:42:22;;;;;;;8.40;6.40;;;;;;;7.67;100.00;98167.27;109638;1251;59998;-72
2023/11/21 03:44:49;;;;;;;10.40;6.90;;;;;;;7.66;100.00;98167.69;109560;1251;65233;-72
2023/11/21 03:47:15;;;;;;;9.00;6.60;;;;;;;7.64;100.00;98163.71;109592;1251;58953;-73
2023/11/21 03:49:42;;;;;;;9.70;6.10;;;;;;;7.64;100.00;98163.78;109686;1251;58924;-72
2023/11/21 03:52:09;;;;;;;8.10;6.10;;;;;;;7.63;100.00;98164.02;109601;1251;66984;-72
2023/11/21 03:54:36;;;;;;;11.00;7.30;;;;;;;7.62;100.00;98159.33;109631;1250;61472;-72
2023/11/21 03:57:03;;;;;;;10.90;6.80;;;;;;;7.62;100.00;98164.45;109432;1254;64146;-72
2023/11/21 03:59:30;;;;;;;9.80;7.10;;;;;;;7.61;100.00;98163.28;109668;1251;58965;-72
2023/11/21 04:01:57;;;;;;;7.90;7.10;;;;;;;7.60;100.00;98163.52;109659;1251;59083;-72
2023/11/21 04:04:23;;;;;;;9.50;6.80;;;;;;;7.58;100.00;98162.20;109640;1251;67165;-72
2023/11/21 04:06:51;;;;;;;7.70;6.40;;;;;;;7.58;100.00;98162.41;109327;1251;60347;-73
2023/11/21 04:09:18;;;;;;;8.20;6.70;;;;;;;7.57;100.00;98158.98;109606;1251;65320;-72
2023/11/21 04:11:45;;;;;;;10.00;6.50;;;;;;;7.56;100.00;98158.70;109579;1251;58953;-72
2023/11/21 04:14:13;;;;;;;7.00;6.00;;;;;;;7.54;100.00;98157.05;109619;1250;58982;-72
2023/11/21 04:16:40;;;;;;;8.10;5.80;;;;;;;7.51;100.00;98155.98;109681;1250;66011;-72
2023/11/21 04:19:07;;;;;;;12.10;5.80;;;;;;;7.49;100.00;98154.02;109633;1250;60210;-72
2023/11/21 04:21:34;;;;;;;11.40;6.00;;;;;;;7.46;100.00;98153.99;109266;1251;64118;-72
2023/11/21 04:24:01;;;;;;;8.80;6.20;;;;;;;7.44;100.00;98151.17;109648;1251;59045;-72
2023/11/21 04:26:27;;;;;;;7.90;5.40;;;;;;;7.42;100.00;98154.46;109622;1250;58973;-72
2023/11/21 04:28:54;;;;;;;8.10;5.70;;;;;;;7.41;100.00;98155.94;109314;1251;65720;-72
2023/11/21 04:31:21;;;;;;;7.80;6.10;;;;;;;7.41;100.00;98161.77;109659;1250;61030;-72
2023/11/21 04:33:47;;;;;;;9.30;6.10;;;;;;;7.41;100.00;98159.90;109649;1251;64983;-72
2023/11/21 04:36:14;;;;;;;10.30;7.10;;;;;;;7.40;100.00;98162.58;109644;1253;59392;-72
2023/11/21 04:38:40;;;;;;;8.90;7.20;;;;;;;7.39;100.00;98161.02;109618;1251;58983;-73
2023/11/21 04:41:07;;;;;;;7.90;7.10;;;;;;;7.40;100.00;98161.55;109651;1251;67094;-72
2023/11/21 04:43:34;;;;;;;11.60;7.90;;;;;;;7.39;100.00;98165.11;109661;1250;61062;-71
2023/11/21 04:46:02;;;;;;;11.00;8.50;;;;;;;7.39;100.00;98163.73;109621;1251;65038;-72
2023/11/21 04:48:29;;;;;;;9.70;7.70;;;;;;;7.39;100.00;98166.02;109655;1251;58933;-72
2023/11/21 04:50:56;;;;;;;8.60;7.50;;;;;;;7.38;100.00;98171.52;109624;1251;58874;-72
2023/11/21 04:53:22;;;;;;;10.30;7.40;;;;;;;7.38;100.00;98173.98;109670;1251;66070;-73
2023/11/21 04:55:49;;;;;;;10.40;7.50;;;;;;;7.39;100.00;98176.60;109635;1251;60207;-72
2023/11/21 04:58:16;;;;;;;8.30;7.10;;;;;;;7.39;100.00;98178.52;109600;1251;64178;-72
2023/11/21 05:00:42;;;;;;;11.40;7.50;;;;;;;7.39;100.00;98179.27;109642;1251;59020;-72
2023/11/21 05:03:10;;;;;;;9.60;6.50;;;;;;;7.40;100.00;98181.84;109620;1251;58957;-73
2023/11/21 05:05:37;;;;;;;6.60;5.90;;;;;;;7.41;100.00;98182.84;109600;1251;67042;-72
2023/11/21 05:08:05;;;;;;;8.30;6.60;;;;;;;7.41;100.00;98180.52;109650;1251;59771;-72
2023/11/21 05:10:31;;;;;;;9.20;5.90;;;;;;;7.41;100.00;98181.23;109619;1251;64853;-72
2023/11/21 05:12:58;;;;;;;9.90;6.90;;;;;;;7.42;100.00;98183.83;109648;1251;58961;-72
2023/11/21 05:15:25;;;;;;;8.20;6.50;;;;;;;7.43;100.00;98189.77;109642;1250;59174;-72
2023/11/21 05:17:52;;;;;;;8.90;6.50;;;;;;;7.42;100.00;98192.97;109460;1250;186568;-73
2023/11/21 05:20:21;;;;;;;10.50;6.70;;;;;;;7.43;100.00;98204.41;109633;1251;61388;-72
2023/11/21 05:22:50;;;;;;;11.20;10.10;;;;;;;7.44;100.00;98205.79;109673;1251;64902;-72
2023/11/21 05:25:20;;;;;;;9.30;8.30;;;;;;;7.44;100.00;98208.95;109592;1251;59159;-72
2023/11/21 05:27:47;;;;;;;10.10;6.90;;;;;;;7.44;100.00;98210.90;109304;1251;59058;-72
2023/11/21 05:30:14;;;;;;;8.70;7.30;;;;;;;7.43;100.00;98218.35;109588;1250;67231;-72
2023/11/21 05:32:44;;;;;;;12.80;9.00;;;;;;;7.42;100.00;98220.21;109621;1251;61075;-72
2023/11/21 05:35:15;;;;;;;12.00;10.40;;;;;;;7.40;100.00;98219.46;109609;1251;65040;-72
2023/11/21 05:37:42;;;;;;;12.50;11.20;;;;;;;7.39;100.00;98223.27;109408;1251;59043;-72
2023/11/21 05:40:09;;;;;;;13.40;11.50;;;;;;;7.37;100.00;98224.27;109613;1251;59090;-72
2023/11/21 05:42:37;;;;;;;12.30;11.10;;;;;;;7.35;100.00;98225.98;109601;1250;67003;-72
2023/11/21 05:45:11;;;;;;;16.90;12.20;;;;;;;7.33;100.00;98228.21;109593;1250;60070;-72
2023/11/21 05:47:43;;;;;;;18.20;16.20;;;;;;;7.32;100.00;98229.04;109594;1251;65072;-72
2023/11/21 05:50:12;;;;;;;15.80;14.20;;;;;;;7.30;100.00;98231.98;109581;1251;59292;-72
2023/11/21 05:52:41;;;;;;;19.10;17.20;;;;;;;7.29;100.00;98233.09;109596;1251;59068;-72
2023/11/21 05:55:08;;;;;;;23.90;21.40;;;;;;;7.29;100.00;98232.23;109604;1250;66644;-72
2023/11/21 05:57:37;;;;;;;23.50;20.90;;;;;;;7.28;100.00;98229.09;109626;1250;59880;-72
2023/11/21 06:00:11;;;;;;;26.40;23.10;;;;;;;7.27;100.00;98232.89;109374;1251;65078;-72
2023/11/21 06:02:39;;;;;;;26.00;23.40;;;;;;;7.25;100.00;98236.50;109377;1251;59078;-72
2023/11/21 06:05:10;;;;;;;24.50;22.00;;;;;;;7.25;100.00;98235.82;109649;1251;59876;-72
2023/11/21 06:07:37;;;;;;;24.20;21.40;;;;;;;7.26;100.00;98235.92;109627;1251;65687;-72
2023/11/21 06:10:12;;;;;;;24.00;21.50;;;;;;;7.26;100.00;98238.74;109224;1250;61463;-72
2023/11/21 06:12:40;;;;;;;21.60;19.50;;;;;;;7.26;100.00;98238.75;109499;1251;65916;-72
2023/11/21 06:15:08;;;;;;;18.70;16.60;;;;;;;7.25;100.00;98239.48;109566;1252;59273;-73
2023/11/21 06:17:39;;;;;;;18.90;16.90;;;;;;;7.25;100.00;98244.30;109539;1251;58982;-73
2023/11/21 06:20:09;;;;;;;;;;;;;;;7.25;100.00;98249.41;109648;1251;67084;-73
2023/11/21 06:22:37;;;;;;;18.80;16.90;;;;;;;7.24;100.00;98249.48;109573;1251;59813;-73
2023/11/21 06:25:05;;;;;;;19.70;17.70;;;;;;;7.23;100.00;98249.89;109623;1251;63801;-73
2023/11/21 06:27:32;;;;;;;18.70;16.80;;;;;;;7.24;100.00;98248.98;109581;1251;58935;-73
2023/11/21 06:30:00;;;;;;;22.80;20.40;;;;;;;7.24;100.00;98248.05;109608;1251;59002;-73
2023/11/21 06:32:28;;;;;;;20.20;18.00;;;;;;;7.26;100.00;98248.81;109618;1250;66801;-71
2023/11/21 06:34:56;;;;;;;17.30;14.90;;;;;;;7.28;100.00;98250.50;109384;1251;60201;-71
2023/11/21 06:37:23;;;;;;;19.00;16.40;;;;;;;7.29;100.00;98253.59;109564;1251;64760;-72
2023/11/21 06:39:52;;;;;;;20.70;18.70;;;;;;;7.31;100.00;98251.16;109607;1251;58940;-72
2023/11/21 06:42:21;;;;;;;18.80;17.00;;;;;;;7.32;100.00;98252.88;109616;1251;58904;-73
2023/11/21 06:44:48;;;;;;;22.00;19.80;;;;;;;7.32;100.00;98257.97;109657;1250;65998;-72
2023/11/21 06:47:15;;;;;;;19.70;17.60;;;;;;;7.32;100.00;98259.02;109636;1250;60065;-72
2023/11/21 06:49:43;;;;;;;19.30;16.90;;;;;;;7.34;100.00;98261.23;109558;1251;65043;-72
2023/11/21 06:52:09;;;;;;;19.40;17.00;;;;;;;7.35;100.00;98265.02;109592;1251;58935;-72
2023/11/21 06:54:37;;;;;;;17.10;15.30;;;;;;;7.38;100.00;98268.73;109380;1250;59264;-72
2023/11/21 06:57:03;;;;;;;18.50;15.00;;;;;;;7.40;100.00;98274.05;109621;1250;66955;-72
2023/11/21 06:59:30;;;;;;;15.70;12.70;;;;;;;7.42;100.00;98273.96;109589;1250;61096;-71
2023/11/21 07:01:57;;;;;;;15.90;13.10;;;;;;;7.43;100.00;98273.52;109640;1251;65153;-72
2023/11/21 07:04:25;;;;;;;14.40;12.60;;;;;;;7.45;100.00;98279.06;109538;1250;58960;-71
2023/11/21 07:06:53;;;;;;;14.20;11.80;;;;;;;7.47;100.00;98278.92;109620;1251;59251;-72
2023/11/21 07:09:25;;;;;;;12.40;11.10;;;;;;;7.50;100.00;98279.94;109233;1251;67338;-75
2023/11/21 07:11:52;;;;;;;13.10;11.10;;;;;;;7.53;100.00;98281.88;109669;1250;59837;-72
2023/11/21 07:14:19;;;;;;;15.10;11.70;;;;;;;7.57;100.00;98285.17;109614;1251;65103;-75
2023/11/21 07:16:46;;;;;;;13.80;11.40;;;;;;;7.61;100.00;98286.84;109574;1251;58957;-75
2023/11/21 07:19:13;;;;;;;12.70;11.40;;;;;;;7.65;100.00;98289.24;109501;1253;59019;-74
2023/11/21 07:21:40;;;;;;;15.70;10.90;;;;;;;7.67;100.00;98289.98;109587;1250;66721;-74
2023/11/21 07:24:08;;;;;;;12.80;10.80;;;;;;;7.68;100.00;98290.38;109629;1251;60754;-74
2023/11/21 07:26:35;;;;;;;15.30;12.10;;;;;;;7.72;100.00;98294.61;109584;1251;64991;-73
2023/11/21 07:29:02;;;;;;;15.40;12.40;;;;;;;7.76;100.00;98293.44;109414;1251;59486;-73
2023/11/21 07:31:29;;;;;;;15.60;12.70;;;;;;;7.78;100.00;98294.52;109615;1251;58978;-73
2023/11/21 07:33:59;;;;;;;21.20;16.40;;;;;;;7.79;100.00;98299.05;109628;1251;67204;-75
2023/11/21 07:36:26;;;;;;;19.20;16.60;;;;;;;7.83;100.00;98296.33;109622;1251;61056;-74
2023/11/21 07:38:53;;;;;;;19.70;16.40;;;;;;;7.89;100.00;98300.65;109627;1251;65522;-74
2023/11/21 07:41:20;;;;;;;18.90;16.90;;;;;;;7.96;100.00;98303.64;109571;1251;58985;-74
2023/11/21 07:43:47;;;;;;;20.80;18.30;;;;;;;8.03;100.00;98307.39;109607;1251;59037;-74
2023/11/21 07:46:14;;;;;;;21.00;18.80;;;;;;;8.11;100.00;98308.42;109632;1251;67011;-74
2023/11/21 07:48:42;;;;;;;20.00;16.50;;;;;;;8.19;100.00;98311.80;109683;1251;59705;-74
2023/11/21 07:51:09;;;;;;;17.40;14.70;;;;;;;8.23;100.00;98316.11;109606;1251;64121;-73
2023/11/21 07:53:36;;;;;;;17.50;12.00;;;;;;;8.22;100.00;98315.68;109616;1251;58950;-73
2023/11/21 07:56:04;;;;;;;14.30;10.80;;;;;;;8.19;100.00;98316.76;109460;1251;58974;-73
2023/11/21 07:58:33;;;;;;;13.00;9.80;;;;;;;8.17;100.00;98317.23;109560;1251;67125;-74
2023/11/21 08:01:00;;;;;;;14.40;11.00;;;;;;;8.19;100.00;98318.31;109629;1251;60918;-73
2023/11/21 08:03:29;;;;;;;13.10;10.10;;;;;;;8.24;100.00;98321.33;109520;1251;64826;-73
2023/11/21 08:05:57;;;;;;;11.60;10.10;;;;;;;8.29;100.00;98323.14;109600;1251;59032;-73
2023/11/21 08:08:24;;;;;;;13.90;10.20;;;;;;;8.33;100.00;98324.23;109597;1251;58970;-75
2023/11/21 08:10:57;;;;;;;16.80;11.30;;;;;;;8.38;100.00;98323.23;109594;1251;67059;-74
2023/11/21 08:13:25;;;;;;;13.90;10.90;;;;;;;8.43;100.00;98323.23;109658;1250;59909;-74
2023/11/21 08:15:56;;;;;;;21.50;14.60;;;;;;;8.49;100.00;98323.75;109609;1251;64710;-74
2023/11/21 08:18:23;;;;;;;25.50;17.90;;;;;;;8.50;100.00;98327.34;109601;1251;58934;-74
2023/11/21 08:20:49;;;;;;;23.60;17.00;;;;;;;8.53;100.00;98332.85;109604;1251;58969;-74
2023/11/21 08:23:18;;;;;;;20.20;16.90;;;;;;;8.53;100.00;98332.29;109590;1251;66988;-74
2023/11/21 08:25:45;;;;;;;18.80;16.20;;;;;;;8.53;100.00;98331.58;109558;1254;60157;-74
2023/11/21 08:28:14;;;;;;;18.60;15.20;;;;;;;8.54;100.00;98333.46;109561;1251;64257;-74
2023/11/21 08:30:41;;;;;;;18.80;14.30;;;;;;;8.57;100.00;98334.86;109557;1251;58997;-74
2023/11/21 08:33:08;;;;;;;16.00;13.50;;;;;;;8.62;100.00;98336.14;109588;1251;59007;-74
2023/11/21 08:35:36;;;;;;;15.10;12.30;;;;;;;8.66;100.00;98338.35;109654;1251;67108;-74
2023/11/21 08:38:03;;;;;;;19.40;13.30;;;;;;;8.71;100.00;98341.17;109677;1251;59985;-74
2023/11/21 08:40:30;;;;;;;16.20;12.20;;;;;;;8.76;100.00;98339.90;109183;1251;64140;-74
2023/11/21 08:42:58;;;;;;;14.80;11.80;;;;;;;8.83;100.00;98338.23;109557;1251;58939;-74
2023/11/21 08:45:25;;;;;;;16.40;11.90;;;;;;;8.88;100.00;98342.27;109653;1251;58888;-74
2023/11/21 08:47:52;;;;;;;16.50;11.90;;;;;;;8.93;100.00;98344.73;109677;1251;66941;-74
2023/11/21 08:50:19;;;;;;;16.60;13.10;;;;;;;8.97;100.00;98346.59;109566;1251;61079;-74
2023/11/21 08:52:46;;;;;;;18.00;12.50;;;;;;;9.01;100.00;98346.70;109634;1251;65095;-74
2023/11/21 08:55:13;;;;;;;16.40;11.40;;;;;;;9.07;100.00;98345.38;109376;1251;58963;-74
2023/11/21 08:57:41;;;;;;;14.70;11.60;;;;;;;9.10;100.00;98347.59;109611;1251;59034;-74
2023/11/21 09:00:11;;;;;;;13.30;11.50;;;;;;;9.16;100.00;98348.95;109643;1251;66105;-74
2023/11/21 09:02:41;;;;;;;13.40;10.60;;;;;;;9.24;100.00;98343.65;109594;1250;61157;-74
2023/11/21 09:05:12;;;;;;;13.40;10.80;;;;;;;9.30;100.00;98339.43;109583;1251;64930;-74
2023/11/21 09:07:43;;;;;;;14.80;10.30;;;;;;;9.38;100.00;98339.91;109610;1251;59012;-73
2023/11/21 09:10:10;;;;;;;12.90;10.70;;;;;;;9.48;100.00;98340.11;109328;1251;58957;-74
2023/11/21 09:12:38;;;;;;;12.20;10.30;;;;;;;9.52;100.00;98338.57;109651;1250;67002;-75
2023/11/21 09:15:06;;;;;;;14.80;10.20;;;;;;;9.53;100.00;98340.62;109586;1250;60807;-73
2023/11/21 09:17:34;;;;;;;13.90;10.50;;;;;;;9.53;100.00;98338.33;109643;1251;65094;-73
2023/11/21 09:20:01;;;;;;;10.30;9.20;;;;;;;9.53;100.00;98339.89;109550;1251;59100;-74
2023/11/21 09:22:29;;;;;;;12.20;8.90;;;;;;;9.52;100.00;98337.69;109627;1251;58950;-75
2023/11/21 09:24:57;;;;;;;9.10;8.20;;;;;;;9.52;100.00;98339.61;109614;1250;66803;-75
2023/11/21 09:27:25;;;;;;;9.90;8.90;;;;;;;9.55;100.00;98342.26;109589;1251;61241;-75
2023/11/21 09:29:53;;;;;;;11.40;8.80;;;;;;;9.57;100.00;98343.35;109561;1251;65074;-74
2023/11/21 09:32:21;;;;;;;16.00;10.40;;;;;;;9.63;100.00;98346.45;109610;1251;59011;-73
2023/11/21 09:34:51;;;;;;;11.10;8.60;;;;;;;9.70;100.00;98348.10;109653;1251;59082;-75
2023/11/21 09:37:18;;;;;;;10.70;8.20;;;;;;;9.70;100.00;98342.96;109663;1251;65945;-74
2023/11/21 09:39:47;;;;;;;11.20;7.70;;;;;;;9.73;100.00;98342.86;109335;1251;61252;-74
2023/11/21 09:42:44;;;;;;;16.30;9.70;;;;;;;9.74;100.00;98346.92;109630;1251;71894;-75
2023/11/21 09:45:23;;;;;;;10.70;8.90;;;;;;;9.73;100.00;98347.33;109597;1251;58958;-74
2023/11/21 09:47:53;;;;;;;13.20;10.10;;;;;;;9.75;100.00;98347.34;109570;1251;58953;-74
2023/11/21 09:50:24;;;;;;;14.70;10.40;;;;;;;9.77;100.00;98347.56;109584;1251;66011;-73
2023/11/21 09:53:11;;;;;;;;;;;;;;;9.85;100.00;98348.38;109635;1250;61313;-73
2023/11/21 09:55:40;;;;;;;13.30;10.60;;;;;;;9.97;100.00;98342.86;109664;1251;65301;-72
2023/11/21 09:58:11;;;;;;;12.60;10.50;;;;;;;10.08;100.00;98344.52;109607;1251;59044;-74
2023/11/21 10:00:43;;;;;;;11.30;10.10;;;;;;;10.13;100.00;98346.61;109610;1251;58976;-73
2023/11/21 10:03:11;;;;;;;11.40;9.40;;;;;;;10.11;100.00;98349.06;109644;1250;64807;-73
2023/11/21 10:05:39;;;;;;;15.40;9.80;;;;;;;10.01;100.00;98355.34;109667;1251;61163;-74
2023/11/21 10:08:10;;;;;;;11.00;9.70;;;;;;;9.86;100.00;98357.36;109652;1251;65069;-73
2023/11/21 10:10:42;;;;;;;12.20;9.50;;;;;;;9.75;100.00;98356.17;109340;1250;58998;-74
2023/11/21 10:13:12;;;;;;;12.30;9.90;;;;;;;9.73;100.00;98357.30;109624;1251;59539;-74
2023/11/21 10:15:44;;;;;;;13.70;10.70;;;;;;;9.74;100.00;98354.69;109570;1250;65984;-74
2023/11/21 10:18:12;;;;;;;12.00;8.70;;;;;;;9.77;100.00;98353.06;109308;1251;60724;-75
2023/11/21 10:20:38;;;;;;;11.50;8.70;;;;;;;9.77;100.00;98352.16;109577;1251;65082;-74
2023/11/21 10:23:07;;;;;;;10.40;8.50;;;;;;;9.77;100.00;98353.95;109627;1251;59036;-74
2023/11/21 10:25:35;;;;;;;14.10;9.50;;;;;;;9.78;100.00;98353.14;109596;1251;59005;-75
2023/11/21 10:28:07;;;;;;;14.90;10.20;;;;;;;9.83;100.00;98354.36;109656;1251;65983;-74
2023/11/21 10:30:38;;;;;;;13.30;11.80;;;;;;;9.90;100.00;98353.48;109661;1250;61191;-75
2023/11/21 10:33:06;;;;;;;13.60;11.10;;;;;;;9.96;100.00;98350.06;109593;1254;65038;-74
2023/11/21 10:35:46;;;;;;;15.30;11.90;;;;;;;9.99;100.00;98346.45;109656;1250;58953;-75
2023/11/21 10:38:13;;;;;;;14.10;11.80;;;;;;;9.99;100.00;98343.57;109596;1250;58859;-74
2023/11/21 10:40:42;;;;;;;17.10;12.40;;;;;;;10.03;100.00;98343.63;109603;1251;65996;-75
2023/11/21 10:43:09;;;;;;;18.10;13.00;;;;;;;10.08;100.00;98341.29;109672;1251;60114;-74
2023/11/21 10:45:39;;;;;;;17.00;13.50;;;;;;;10.11;100.00;98342.17;109570;1251;64081;-74
2023/11/21 10:48:12;;;;;;;17.60;14.40;;;;;;;10.09;100.00;98340.66;109657;1251;59603;-74
2023/11/21 10:50:39;;;;;;;17.20;13.50;;;;;;;10.11;100.00;98341.95;109613;1251;58898;-75
2023/11/21 10:53:05;;;;;;;16.60;14.70;;;;;;;10.10;100.00;98344.52;109651;1254;67003;-73
2023/11/21 10:55:33;;;;;;;14.50;12.90;;;;;;;10.04;100.00;98344.66;109614;1251;61149;-74
2023/11/21 10:58:04;;;;;;;14.60;12.30;;;;;;;9.96;100.00;98343.29;109617;1251;65071;-74
2023/11/21 11:00:33;;;;;;;14.00;11.40;;;;;;;9.91;100.00;98342.27;109579;1251;58947;-73
2023/11/21 11:03:00;;;;;;;16.90;12.60;;;;;;;9.88;100.00;98340.15;109604;1251;59116;-73
2023/11/21 11:05:29;;;;;;;11.90;10.10;;;;;;;9.87;100.00;98332.40;109571;1250;65934;-74
2023/11/21 11:08:01;;;;;;;14.30;10.60;;;;;;;9.84;100.00;98334.22;109645;1251;60167;-73
2023/11/21 11:10:31;;;;;;;10.00;8.70;;;;;;;9.75;100.00;98339.70;109576;1251;65110;-73
2023/11/21 11:12:58;;;;;;;12.10;9.00;;;;;;;9.65;100.00;98337.79;109564;1251;58874;-73
2023/11/21 11:15:26;;;;;;;12.90;10.20;;;;;;;9.56;100.00;98341.94;109622;1251;58995;-75
2023/11/21 11:17:57;;;;;;;13.50;10.90;;;;;;;9.48;100.00;98343.78;109556;1251;65966;-74
2023/11/21 11:20:30;;;;;;;12.30;9.80;;;;;;;9.41;100.00;98347.29;109654;1251;60240;-75